sensor_id;sensor_type;location;lat;lon;timestamp;temperature;humidity
14049;DHT22;7099;53.922;10.728;2023-04-25T00:01:28;9.30;75.40
14049;DHT22;7099;53.922;10.728;2023-04-25T00:05:34;9.30;75.20
14049;DHT22;7099;53.922;10.728;2023-04-25T00:09:42;9.20;75.10
14049;DHT22;7099;53.922;10.728;2023-04-25T00:13:48;9.20;75.30
14049;DHT22;7099;53.922;10.728;2023-04-25T00:17:55;9.20;75.10
14049;DHT22;7099;53.922;10.728;2023-04-25T00:22:01;9.10;74.70
14049;DHT22;7099;53.922;10.728;2023-04-25T00:26:07;9.10;74.20
14049;DHT22;7099;53.922;10.728;2023-04-25T00:30:13;9.10;74.10
14049;DHT22;7099;53.922;10.728;2023-04-25T00:34:20;9.00;74.20
14049;DHT22;7099;53.922;10.728;2023-04-25T00:38:26;9.00;74.00
14049;DHT22;7099;53.922;10.728;2023-04-25T00:42:31;8.90;73.60
14049;DHT22;7099;53.922;10.728;2023-04-25T00:46:39;8.90;73.40
14049;DHT22;7099;53.922;10.728;2023-04-25T00:50:53;8.90;73.40
14049;DHT22;7099;53.922;10.728;2023-04-25T00:55:00;8.80;73.10
14049;DHT22;7099;53.922;10.728;2023-04-25T00:59:06;8.80;73.00
14049;DHT22;7099;53.922;10.728;2023-04-25T01:03:13;8.80;73.00
14049;DHT22;7099;53.922;10.728;2023-04-25T01:07:22;8.80;72.90
14049;DHT22;7099;53.922;10.728;2023-04-25T01:11:28;8.70;72.90
14049;DHT22;7099;53.922;10.728;2023-04-25T01:15:34;8.70;72.80
14049;DHT22;7099;53.922;10.728;2023-04-25T01:19:42;8.70;72.50
14049;DHT22;7099;53.922;10.728;2023-04-25T01:23:48;8.60;72.30
14049;DHT22;7099;53.922;10.728;2023-04-25T01:27:54;8.60;72.10
14049;DHT22;7099;53.922;10.728;2023-04-25T01:32:03;8.60;72.20
14049;DHT22;7099;53.922;10.728;2023-04-25T01:36:09;8.60;72.10
14049;DHT22;7099;53.922;10.728;2023-04-25T01:40:15;8.60;72.10
14049;DHT22;7099;53.922;10.728;2023-04-25T01:44:20;8.60;71.90
14049;DHT22;7099;53.922;10.728;2023-04-25T01:48:26;8.50;71.80
14049;DHT22;7099;53.922;10.728;2023-04-25T01:52:32;8.50;71.80
14049;DHT22;7099;53.922;10.728;2023-04-25T01:56:38;8.40;71.70
14049;DHT22;7099;53.922;10.728;2023-04-25T02:00:44;8.40;71.20
14049;DHT22;7099;53.922;10.728;2023-04-25T02:04:50;8.30;71.20
14049;DHT22;7099;53.922;10.728;2023-04-25T02:08:56;8.30;70.90
14049;DHT22;7099;53.922;10.728;2023-04-25T02:13:02;8.30;70.70
14049;DHT22;7099;53.922;10.728;2023-04-25T02:17:08;8.30;70.90
14049;DHT22;7099;53.922;10.728;2023-04-25T02:21:13;8.20;70.10
14049;DHT22;7099;53.922;10.728;2023-04-25T02:25:19;8.20;70.00
14049;DHT22;7099;53.922;10.728;2023-04-25T02:29:25;8.20;69.60
14049;DHT22;7099;53.922;10.728;2023-04-25T02:33:31;8.00;68.60
14049;DHT22;7099;53.922;10.728;2023-04-25T02:37:38;8.00;68.80
14049;DHT22;7099;53.922;10.728;2023-04-25T02:41:44;7.90;68.50
14049;DHT22;7099;53.922;10.728;2023-04-25T02:45:50;7.90;68.60
14049;DHT22;7099;53.922;10.728;2023-04-25T02:49:56;7.90;68.50
14049;DHT22;7099;53.922;10.728;2023-04-25T02:54:01;7.90;68.70
14049;DHT22;7099;53.922;10.728;2023-04-25T02:58:07;7.90;68.70
14049;DHT22;7099;53.922;10.728;2023-04-25T03:02:13;7.90;68.70
14049;DHT22;7099;53.922;10.728;2023-04-25T03:06:18;7.80;67.80
14049;DHT22;7099;53.922;10.728;2023-04-25T03:10:24;7.80;67.80
14049;DHT22;7099;53.922;10.728;2023-04-25T03:14:29;7.70;67.60
14049;DHT22;7099;53.922;10.728;2023-04-25T03:18:35;7.60;67.50
14049;DHT22;7099;53.922;10.728;2023-04-25T03:22:41;7.60;67.40
14049;DHT22;7099;53.922;10.728;2023-04-25T03:26:46;7.60;67.50
14049;DHT22;7099;53.922;10.728;2023-04-25T03:30:52;7.50;67.50
14049;DHT22;7099;53.922;10.728;2023-04-25T03:34:59;7.40;67.20
14049;DHT22;7099;53.922;10.728;2023-04-25T03:39:04;7.40;67.20
14049;DHT22;7099;53.922;10.728;2023-04-25T03:43:11;7.30;67.00
14049;DHT22;7099;53.922;10.728;2023-04-25T03:47:16;7.20;67.00
14049;DHT22;7099;53.922;10.728;2023-04-25T03:51:22;7.20;67.10
14049;DHT22;7099;53.922;10.728;2023-04-25T03:55:28;7.20;67.20
14049;DHT22;7099;53.922;10.728;2023-04-25T03:59:33;7.20;67.30
14049;DHT22;7099;53.922;10.728;2023-04-25T04:03:39;7.10;67.00
14049;DHT22;7099;53.922;10.728;2023-04-25T04:07:45;7.10;66.80
14049;DHT22;7099;53.922;10.728;2023-04-25T04:11:50;7.00;66.70
14049;DHT22;7099;53.922;10.728;2023-04-25T04:15:56;7.00;66.50
14049;DHT22;7099;53.922;10.728;2023-04-25T04:20:03;7.00;66.50
14049;DHT22;7099;53.922;10.728;2023-04-25T04:24:09;6.90;66.30
14049;DHT22;7099;53.922;10.728;2023-04-25T04:28:15;6.90;66.40
14049;DHT22;7099;53.922;10.728;2023-04-25T04:32:21;6.90;66.50
14049;DHT22;7099;53.922;10.728;2023-04-25T04:36:29;6.80;66.50
14049;DHT22;7099;53.922;10.728;2023-04-25T04:40:35;6.70;66.40
14049;DHT22;7099;53.922;10.728;2023-04-25T04:44:40;6.80;66.20
14049;DHT22;7099;53.922;10.728;2023-04-25T04:48:45;6.80;66.20
14049;DHT22;7099;53.922;10.728;2023-04-25T04:52:51;6.80;66.20
14049;DHT22;7099;53.922;10.728;2023-04-25T04:56:57;6.90;66.10
14049;DHT22;7099;53.922;10.728;2023-04-25T05:01:02;6.80;65.90
14049;DHT22;7099;53.922;10.728;2023-04-25T05:05:08;6.80;65.70
14049;DHT22;7099;53.922;10.728;2023-04-25T05:09:14;6.90;65.50
14049;DHT22;7099;53.922;10.728;2023-04-25T05:13:20;6.90;65.60
14049;DHT22;7099;53.922;10.728;2023-04-25T05:17:25;6.90;65.80
14049;DHT22;7099;53.922;10.728;2023-04-25T05:21:31;7.00;65.30
14049;DHT22;7099;53.922;10.728;2023-04-25T05:25:37;7.00;65.40
14049;DHT22;7099;53.922;10.728;2023-04-25T05:29:42;7.10;65.00
14049;DHT22;7099;53.922;10.728;2023-04-25T05:33:48;7.20;65.20
14049;DHT22;7099;53.922;10.728;2023-04-25T05:37:54;7.20;64.70
14049;DHT22;7099;53.922;10.728;2023-04-25T05:42:00;7.20;64.00
14049;DHT22;7099;53.922;10.728;2023-04-25T05:46:06;7.30;64.20
14049;DHT22;7099;53.922;10.728;2023-04-25T05:50:12;7.20;63.40
14049;DHT22;7099;53.922;10.728;2023-04-25T05:54:17;7.30;63.40
14049;DHT22;7099;53.922;10.728;2023-04-25T05:58:23;7.30;63.10
14049;DHT22;7099;53.922;10.728;2023-04-25T06:02:29;7.30;63.30
14049;DHT22;7099;53.922;10.728;2023-04-25T06:06:35;7.40;63.20
14049;DHT22;7099;53.922;10.728;2023-04-25T06:10:40;7.40;62.40
14049;DHT22;7099;53.922;10.728;2023-04-25T06:14:46;7.50;62.70
14049;DHT22;7099;53.922;10.728;2023-04-25T06:18:51;7.50;62.10
14049;DHT22;7099;53.922;10.728;2023-04-25T06:22:57;7.50;62.50
14049;DHT22;7099;53.922;10.728;2023-04-25T06:27:03;7.60;62.40
14049;DHT22;7099;53.922;10.728;2023-04-25T06:31:08;7.70;62.30
14049;DHT22;7099;53.922;10.728;2023-04-25T06:35:14;7.70;62.70
14049;DHT22;7099;53.922;10.728;2023-04-25T06:39:20;7.80;61.80
14049;DHT22;7099;53.922;10.728;2023-04-25T06:43:28;7.80;62.10
14049;DHT22;7099;53.922;10.728;2023-04-25T06:47:38;7.80;62.10
14049;DHT22;7099;53.922;10.728;2023-04-25T06:51:43;7.90;61.80
14049;DHT22;7099;53.922;10.728;2023-04-25T06:55:49;7.90;61.60
14049;DHT22;7099;53.922;10.728;2023-04-25T06:59:55;7.90;61.60
14049;DHT22;7099;53.922;10.728;2023-04-25T07:04:00;8.00;61.80
14049;DHT22;7099;53.922;10.728;2023-04-25T07:08:07;8.00;61.00
14049;DHT22;7099;53.922;10.728;2023-04-25T07:12:12;8.10;60.80
14049;DHT22;7099;53.922;10.728;2023-04-25T07:16:18;8.10;60.80
14049;DHT22;7099;53.922;10.728;2023-04-25T07:20:23;8.20;60.90
14049;DHT22;7099;53.922;10.728;2023-04-25T07:24:29;8.30;61.00
14049;DHT22;7099;53.922;10.728;2023-04-25T07:28:35;8.30;60.20
14049;DHT22;7099;53.922;10.728;2023-04-25T07:32:41;8.40;59.80
14049;DHT22;7099;53.922;10.728;2023-04-25T07:36:46;8.40;59.90
14049;DHT22;7099;53.922;10.728;2023-04-25T07:40:52;8.50;59.40
14049;DHT22;7099;53.922;10.728;2023-04-25T07:44:58;8.60;60.40
14049;DHT22;7099;53.922;10.728;2023-04-25T07:49:03;8.70;59.70
14049;DHT22;7099;53.922;10.728;2023-04-25T07:53:09;8.80;58.90
14049;DHT22;7099;53.922;10.728;2023-04-25T07:57:15;8.80;59.40
14049;DHT22;7099;53.922;10.728;2023-04-25T08:01:22;8.80;58.50
14049;DHT22;7099;53.922;10.728;2023-04-25T08:05:28;8.90;58.20
14049;DHT22;7099;53.922;10.728;2023-04-25T08:09:34;8.90;57.90
14049;DHT22;7099;53.922;10.728;2023-04-25T08:13:41;8.90;57.90
14049;DHT22;7099;53.922;10.728;2023-04-25T08:17:47;9.00;57.70
14049;DHT22;7099;53.922;10.728;2023-04-25T08:21:53;9.10;57.50
14049;DHT22;7099;53.922;10.728;2023-04-25T08:26:00;9.20;57.20
14049;DHT22;7099;53.922;10.728;2023-04-25T08:30:06;9.30;56.40
14049;DHT22;7099;53.922;10.728;2023-04-25T08:34:13;9.30;55.30
14049;DHT22;7099;53.922;10.728;2023-04-25T08:38:20;9.30;55.40
14049;DHT22;7099;53.922;10.728;2023-04-25T08:42:27;9.50;54.90
14049;DHT22;7099;53.922;10.728;2023-04-25T08:46:34;9.60;54.30
14049;DHT22;7099;53.922;10.728;2023-04-25T08:51:01;9.70;53.80
14049;DHT22;7099;53.922;10.728;2023-04-25T08:55:09;9.70;51.70
14049;DHT22;7099;53.922;10.728;2023-04-25T08:59:17;9.80;53.20
14049;DHT22;7099;53.922;10.728;2023-04-25T09:03:23;10.10;53.00
14049;DHT22;7099;53.922;10.728;2023-04-25T09:07:30;10.30;52.00
14049;DHT22;7099;53.922;10.728;2023-04-25T09:11:36;10.30;51.10
14049;DHT22;7099;53.922;10.728;2023-04-25T09:15:49;10.30;50.80
14049;DHT22;7099;53.922;10.728;2023-04-25T09:20:06;10.20;48.70
14049;DHT22;7099;53.922;10.728;2023-04-25T09:24:12;10.00;49.50
14049;DHT22;7099;53.922;10.728;2023-04-25T09:28:28;9.90;50.40
14049;DHT22;7099;53.922;10.728;2023-04-25T09:32:35;9.80;50.80
14049;DHT22;7099;53.922;10.728;2023-04-25T09:36:42;9.80;51.30
14049;DHT22;7099;53.922;10.728;2023-04-25T09:40:48;9.70;51.90
14049;DHT22;7099;53.922;10.728;2023-04-25T09:44:56;9.60;52.20
14049;DHT22;7099;53.922;10.728;2023-04-25T09:49:07;9.70;53.20
14049;DHT22;7099;53.922;10.728;2023-04-25T09:53:13;9.80;53.50
14049;DHT22;7099;53.922;10.728;2023-04-25T09:57:20;9.80;53.30
14049;DHT22;7099;53.922;10.728;2023-04-25T10:01:27;9.90;53.40
14049;DHT22;7099;53.922;10.728;2023-04-25T10:05:34;10.00;53.60
14049;DHT22;7099;53.922;10.728;2023-04-25T10:09:41;10.20;53.20
14049;DHT22;7099;53.922;10.728;2023-04-25T10:13:48;10.40;53.60
14049;DHT22;7099;53.922;10.728;2023-04-25T10:17:54;10.40;52.70
14049;DHT22;7099;53.922;10.728;2023-04-25T10:22:17;10.30;52.50
14049;DHT22;7099;53.922;10.728;2023-04-25T10:26:25;10.10;53.00
14049;DHT22;7099;53.922;10.728;2023-04-25T10:30:33;9.90;53.40
14049;DHT22;7099;53.922;10.728;2023-04-25T10:34:41;9.80;53.30
14049;DHT22;7099;53.922;10.728;2023-04-25T10:38:52;9.70;53.40
14049;DHT22;7099;53.922;10.728;2023-04-25T10:47:36;9.90;54.00
14049;DHT22;7099;53.922;10.728;2023-04-25T10:51:50;9.90;53.70
14049;DHT22;7099;53.922;10.728;2023-04-25T10:56:00;10.00;53.90
14049;DHT22;7099;53.922;10.728;2023-04-25T11:04:24;10.20;52.30
14049;DHT22;7099;53.922;10.728;2023-04-25T11:08:51;10.30;52.00
14049;DHT22;7099;53.922;10.728;2023-04-25T11:12:57;10.40;51.40
14049;DHT22;7099;53.922;10.728;2023-04-25T11:17:05;10.40;52.30
14049;DHT22;7099;53.922;10.728;2023-04-25T11:21:11;10.60;53.50
14049;DHT22;7099;53.922;10.728;2023-04-25T11:25:19;10.80;53.50
14049;DHT22;7099;53.922;10.728;2023-04-25T11:29:29;10.70;54.20
14049;DHT22;7099;53.922;10.728;2023-04-25T11:33:35;10.60;54.70
14049;DHT22;7099;53.922;10.728;2023-04-25T11:37:42;10.60;54.00
14049;DHT22;7099;53.922;10.728;2023-04-25T11:41:49;10.50;53.00
14049;DHT22;7099;53.922;10.728;2023-04-25T11:45:55;10.50;53.30
14049;DHT22;7099;53.922;10.728;2023-04-25T11:50:05;10.50;54.40
14049;DHT22;7099;53.922;10.728;2023-04-25T11:54:12;10.50;54.70
14049;DHT22;7099;53.922;10.728;2023-04-25T11:58:18;10.00;55.10
14049;DHT22;7099;53.922;10.728;2023-04-25T12:02:25;9.60;56.10
14049;DHT22;7099;53.922;10.728;2023-04-25T12:06:31;9.40;57.00
14049;DHT22;7099;53.922;10.728;2023-04-25T12:10:41;9.40;57.00
14049;DHT22;7099;53.922;10.728;2023-04-25T12:14:48;9.50;57.00
14049;DHT22;7099;53.922;10.728;2023-04-25T12:18:55;9.60;56.40
14049;DHT22;7099;53.922;10.728;2023-04-25T12:23:05;9.80;56.30
14049;DHT22;7099;53.922;10.728;2023-04-25T12:27:15;10.10;55.50
14049;DHT22;7099;53.922;10.728;2023-04-25T12:31:22;10.20;53.50
14049;DHT22;7099;53.922;10.728;2023-04-25T12:35:28;10.30;53.80
14049;DHT22;7099;53.922;10.728;2023-04-25T12:39:33;10.70;53.50
14049;DHT22;7099;53.922;10.728;2023-04-25T12:43:39;10.70;52.50
14049;DHT22;7099;53.922;10.728;2023-04-25T12:47:44;10.50;52.70
14049;DHT22;7099;53.922;10.728;2023-04-25T12:51:51;10.20;55.70
14049;DHT22;7099;53.922;10.728;2023-04-25T12:55:56;9.90;57.20
14049;DHT22;7099;53.922;10.728;2023-04-25T13:00:02;9.70;57.10
14049;DHT22;7099;53.922;10.728;2023-04-25T13:04:09;9.60;57.70
14049;DHT22;7099;53.922;10.728;2023-04-25T13:08:15;9.60;56.60
14049;DHT22;7099;53.922;10.728;2023-04-25T13:12:21;9.80;55.80
14049;DHT22;7099;53.922;10.728;2023-04-25T13:16:26;9.90;53.90
14049;DHT22;7099;53.922;10.728;2023-04-25T13:20:32;9.90;53.50
14049;DHT22;7099;53.922;10.728;2023-04-25T13:24:38;10.10;53.80
14049;DHT22;7099;53.922;10.728;2023-04-25T13:28:43;10.40;54.00
14049;DHT22;7099;53.922;10.728;2023-04-25T13:32:51;10.70;52.30
14049;DHT22;7099;53.922;10.728;2023-04-25T13:36:58;11.00;52.90
14049;DHT22;7099;53.922;10.728;2023-04-25T13:41:03;11.40;52.40
14049;DHT22;7099;53.922;10.728;2023-04-25T13:45:09;11.70;51.10
14049;DHT22;7099;53.922;10.728;2023-04-25T13:49:15;11.90;50.30
14049;DHT22;7099;53.922;10.728;2023-04-25T13:53:21;11.90;49.10
14049;DHT22;7099;53.922;10.728;2023-04-25T13:57:26;11.80;49.20
14049;DHT22;7099;53.922;10.728;2023-04-25T14:01:32;11.70;49.80
14049;DHT22;7099;53.922;10.728;2023-04-25T14:05:40;11.90;48.00
14049;DHT22;7099;53.922;10.728;2023-04-25T14:09:46;12.00;47.40
14049;DHT22;7099;53.922;10.728;2023-04-25T14:13:51;11.90;47.40
14049;DHT22;7099;53.922;10.728;2023-04-25T14:17:58;11.70;46.40
14049;DHT22;7099;53.922;10.728;2023-04-25T14:22:04;11.70;46.10
14049;DHT22;7099;53.922;10.728;2023-04-25T14:26:11;11.70;47.60
14049;DHT22;7099;53.922;10.728;2023-04-25T14:30:19;11.70;47.60
14049;DHT22;7099;53.922;10.728;2023-04-25T14:34:25;11.80;48.20
14049;DHT22;7099;53.922;10.728;2023-04-25T14:38:31;12.00;48.30
14049;DHT22;7099;53.922;10.728;2023-04-25T14:42:36;11.70;48.90
14049;DHT22;7099;53.922;10.728;2023-04-25T14:46:42;11.70;50.30
14049;DHT22;7099;53.922;10.728;2023-04-25T14:50:48;11.90;48.60
14049;DHT22;7099;53.922;10.728;2023-04-25T14:54:54;12.30;47.50
14049;DHT22;7099;53.922;10.728;2023-04-25T14:59:00;12.50;47.00
14049;DHT22;7099;53.922;10.728;2023-04-25T15:03:05;12.90;47.20
14049;DHT22;7099;53.922;10.728;2023-04-25T15:07:13;13.10;45.80
14049;DHT22;7099;53.922;10.728;2023-04-25T15:11:22;13.30;45.70
14049;DHT22;7099;53.922;10.728;2023-04-25T15:15:27;13.20;45.60
14049;DHT22;7099;53.922;10.728;2023-04-25T15:19:33;13.10;46.80
14049;DHT22;7099;53.922;10.728;2023-04-25T15:23:38;13.00;46.20
14049;DHT22;7099;53.922;10.728;2023-04-25T15:27:45;12.50;46.10
14049;DHT22;7099;53.922;10.728;2023-04-25T15:31:53;12.20;47.10
14049;DHT22;7099;53.922;10.728;2023-04-25T15:35:59;12.00;47.70
14049;DHT22;7099;53.922;10.728;2023-04-25T15:44:16;12.10;49.20
14049;DHT22;7099;53.922;10.728;2023-04-25T15:48:21;12.60;48.70
14049;DHT22;7099;53.922;10.728;2023-04-25T15:52:27;12.90;48.30
14049;DHT22;7099;53.922;10.728;2023-04-25T15:56:33;12.70;48.10
14049;DHT22;7099;53.922;10.728;2023-04-25T16:00:39;12.20;49.10
14049;DHT22;7099;53.922;10.728;2023-04-25T16:04:45;11.90;49.00
14049;DHT22;7099;53.922;10.728;2023-04-25T16:08:51;12.00;49.30
14049;DHT22;7099;53.922;10.728;2023-04-25T16:12:57;12.40;48.50
14049;DHT22;7099;53.922;10.728;2023-04-25T16:17:04;12.20;48.10
14049;DHT22;7099;53.922;10.728;2023-04-25T16:21:10;11.80;47.50
14049;DHT22;7099;53.922;10.728;2023-04-25T16:25:21;11.30;47.20
14049;DHT22;7099;53.922;10.728;2023-04-25T16:29:27;11.00;48.10
14049;DHT22;7099;53.922;10.728;2023-04-25T16:33:33;10.60;49.40
14049;DHT22;7099;53.922;10.728;2023-04-25T16:37:40;10.30;51.90
14049;DHT22;7099;53.922;10.728;2023-04-25T16:41:46;10.10;52.40
14049;DHT22;7099;53.922;10.728;2023-04-25T16:45:52;9.90;51.90
14049;DHT22;7099;53.922;10.728;2023-04-25T16:49:59;10.00;51.60
14049;DHT22;7099;53.922;10.728;2023-04-25T16:54:05;10.30;50.80
14049;DHT22;7099;53.922;10.728;2023-04-25T16:58:12;10.50;49.90
14049;DHT22;7099;53.922;10.728;2023-04-25T17:02:18;10.50;50.30
14049;DHT22;7099;53.922;10.728;2023-04-25T17:06:24;10.50;50.60
14049;DHT22;7099;53.922;10.728;2023-04-25T17:10:30;10.30;51.20
14049;DHT22;7099;53.922;10.728;2023-04-25T17:14:38;9.90;51.70
14049;DHT22;7099;53.922;10.728;2023-04-25T17:18:44;9.80;52.40
14049;DHT22;7099;53.922;10.728;2023-04-25T17:22:50;9.60;53.20
14049;DHT22;7099;53.922;10.728;2023-04-25T17:26:58;9.50;53.30
14049;DHT22;7099;53.922;10.728;2023-04-25T17:31:03;9.40;54.20
14049;DHT22;7099;53.922;10.728;2023-04-25T17:35:09;9.10;55.10
14049;DHT22;7099;53.922;10.728;2023-04-25T17:39:16;8.90;55.50
14049;DHT22;7099;53.922;10.728;2023-04-25T17:43:21;9.00;55.50
14049;DHT22;7099;53.922;10.728;2023-04-25T17:47:27;9.10;54.70
14049;DHT22;7099;53.922;10.728;2023-04-25T17:51:33;9.10;53.70
14049;DHT22;7099;53.922;10.728;2023-04-25T17:55:39;9.00;52.90
14049;DHT22;7099;53.922;10.728;2023-04-25T17:59:47;8.90;52.90
14049;DHT22;7099;53.922;10.728;2023-04-25T18:03:56;8.90;53.10
14049;DHT22;7099;53.922;10.728;2023-04-25T18:08:03;8.90;53.40
14049;DHT22;7099;53.922;10.728;2023-04-25T18:12:10;8.80;53.70
14049;DHT22;7099;53.922;10.728;2023-04-25T18:16:19;8.80;54.00
14049;DHT22;7099;53.922;10.728;2023-04-25T18:20:24;8.70;54.10
14049;DHT22;7099;53.922;10.728;2023-04-25T18:24:32;8.70;53.90
14049;DHT22;7099;53.922;10.728;2023-04-25T18:28:38;8.60;54.10
14049;DHT22;7099;53.922;10.728;2023-04-25T18:32:44;8.50;54.30
14049;DHT22;7099;53.922;10.728;2023-04-25T18:36:50;8.50;54.40
14049;DHT22;7099;53.922;10.728;2023-04-25T18:40:56;8.40;54.30
14049;DHT22;7099;53.922;10.728;2023-04-25T18:45:19;8.40;54.30
14049;DHT22;7099;53.922;10.728;2023-04-25T18:49:25;8.30;55.70
14049;DHT22;7099;53.922;10.728;2023-04-25T18:53:30;8.00;58.00
14049;DHT22;7099;53.922;10.728;2023-04-25T18:57:37;7.80;59.40
14049;DHT22;7099;53.922;10.728;2023-04-25T19:01:43;7.50;60.90
14049;DHT22;7099;53.922;10.728;2023-04-25T19:05:50;7.30;62.00
14049;DHT22;7099;53.922;10.728;2023-04-25T19:09:55;7.20;63.00
14049;DHT22;7099;53.922;10.728;2023-04-25T19:14:01;7.20;63.10
14049;DHT22;7099;53.922;10.728;2023-04-25T19:18:07;7.10;63.20
14049;DHT22;7099;53.922;10.728;2023-04-25T19:22:13;7.10;63.60
14049;DHT22;7099;53.922;10.728;2023-04-25T19:26:19;7.00;64.00
14049;DHT22;7099;53.922;10.728;2023-04-25T19:30:25;6.90;64.00
14049;DHT22;7099;53.922;10.728;2023-04-25T19:34:33;6.90;64.20
14049;DHT22;7099;53.922;10.728;2023-04-25T19:38:40;6.90;64.20
14049;DHT22;7099;53.922;10.728;2023-04-25T19:42:45;6.80;64.40
14049;DHT22;7099;53.922;10.728;2023-04-25T19:46:51;6.80;64.40
14049;DHT22;7099;53.922;10.728;2023-04-25T19:50:57;6.80;64.20
14049;DHT22;7099;53.922;10.728;2023-04-25T19:55:03;6.80;64.00
14049;DHT22;7099;53.922;10.728;2023-04-25T19:59:10;6.80;63.60
14049;DHT22;7099;53.922;10.728;2023-04-25T20:03:15;6.80;63.20
14049;DHT22;7099;53.922;10.728;2023-04-25T20:07:21;6.70;62.80
14049;DHT22;7099;53.922;10.728;2023-04-25T20:11:27;6.80;62.50
14049;DHT22;7099;53.922;10.728;2023-04-25T20:15:33;6.70;62.30
14049;DHT22;7099;53.922;10.728;2023-04-25T20:19:39;6.70;62.30
14049;DHT22;7099;53.922;10.728;2023-04-25T20:23:45;6.70;62.20
14049;DHT22;7099;53.922;10.728;2023-04-25T20:27:50;6.70;62.30
14049;DHT22;7099;53.922;10.728;2023-04-25T20:31:56;6.60;62.10
14049;DHT22;7099;53.922;10.728;2023-04-25T20:36:02;6.60;62.00
14049;DHT22;7099;53.922;10.728;2023-04-25T20:40:08;6.60;62.30
14049;DHT22;7099;53.922;10.728;2023-04-25T20:44:14;6.60;62.40
14049;DHT22;7099;53.922;10.728;2023-04-25T20:48:20;6.60;62.60
14049;DHT22;7099;53.922;10.728;2023-04-25T20:52:26;6.50;63.20
14049;DHT22;7099;53.922;10.728;2023-04-25T20:56:32;6.50;63.40
14049;DHT22;7099;53.922;10.728;2023-04-25T21:00:37;6.40;63.70
14049;DHT22;7099;53.922;10.728;2023-04-25T21:04:43;6.40;63.80
14049;DHT22;7099;53.922;10.728;2023-04-25T21:08:49;6.40;63.90
14049;DHT22;7099;53.922;10.728;2023-04-25T21:12:55;6.30;64.10
14049;DHT22;7099;53.922;10.728;2023-04-25T21:17:02;6.30;64.00
14049;DHT22;7099;53.922;10.728;2023-04-25T21:21:09;6.30;64.20
14049;DHT22;7099;53.922;10.728;2023-04-25T21:25:16;6.20;64.40
14049;DHT22;7099;53.922;10.728;2023-04-25T21:29:27;6.10;64.50
14049;DHT22;7099;53.922;10.728;2023-04-25T21:33:33;6.10;64.60
14049;DHT22;7099;53.922;10.728;2023-04-25T21:37:39;6.10;64.60
14049;DHT22;7099;53.922;10.728;2023-04-25T21:41:45;6.10;64.70
14049;DHT22;7099;53.922;10.728;2023-04-25T21:45:52;6.10;65.10
14049;DHT22;7099;53.922;10.728;2023-04-25T21:50:17;6.00;65.30
14049;DHT22;7099;53.922;10.728;2023-04-25T21:54:23;6.00;65.20
14049;DHT22;7099;53.922;10.728;2023-04-25T21:58:29;6.10;65.20
14049;DHT22;7099;53.922;10.728;2023-04-25T22:02:35;5.90;65.50
14049;DHT22;7099;53.922;10.728;2023-04-25T22:06:41;5.90;65.40
14049;DHT22;7099;53.922;10.728;2023-04-25T22:10:47;5.80;65.50
14049;DHT22;7099;53.922;10.728;2023-04-25T22:14:55;5.80;65.60
14049;DHT22;7099;53.922;10.728;2023-04-25T22:19:01;5.80;65.80
14049;DHT22;7099;53.922;10.728;2023-04-25T22:23:06;5.80;65.70
14049;DHT22;7099;53.922;10.728;2023-04-25T22:27:12;5.70;65.50
14049;DHT22;7099;53.922;10.728;2023-04-25T22:31:18;5.60;65.40
14049;DHT22;7099;53.922;10.728;2023-04-25T22:35:23;5.60;65.30
14049;DHT22;7099;53.922;10.728;2023-04-25T22:39:29;5.50;65.40
14049;DHT22;7099;53.922;10.728;2023-04-25T22:43:38;5.50;65.30
14049;DHT22;7099;53.922;10.728;2023-04-25T22:47:46;5.40;65.50
14049;DHT22;7099;53.922;10.728;2023-04-25T22:51:52;5.40;65.30
14049;DHT22;7099;53.922;10.728;2023-04-25T22:56:00;5.30;65.40
14049;DHT22;7099;53.922;10.728;2023-04-25T23:00:07;5.30;65.60
14049;DHT22;7099;53.922;10.728;2023-04-25T23:04:33;5.20;65.40
14049;DHT22;7099;53.922;10.728;2023-04-25T23:08:39;5.20;65.60
14049;DHT22;7099;53.922;10.728;2023-04-25T23:12:45;5.10;65.70
14049;DHT22;7099;53.922;10.728;2023-04-25T23:16:51;5.20;65.60
14049;DHT22;7099;53.922;10.728;2023-04-25T23:20:57;5.10;65.60
14049;DHT22;7099;53.922;10.728;2023-04-25T23:25:03;5.10;65.70
14049;DHT22;7099;53.922;10.728;2023-04-25T23:29:11;5.10;65.80
14049;DHT22;7099;53.922;10.728;2023-04-25T23:33:17;5.00;65.80
14049;DHT22;7099;53.922;10.728;2023-04-25T23:37:23;5.00;66.10
14049;DHT22;7099;53.922;10.728;2023-04-25T23:41:28;5.00;66.20
14049;DHT22;7099;53.922;10.728;2023-04-25T23:45:34;4.90;66.30
14049;DHT22;7099;53.922;10.728;2023-04-25T23:49:40;4.90;66.50
14049;DHT22;7099;53.922;10.728;2023-04-25T23:53:45;4.90;66.40
14049;DHT22;7099;53.922;10.728;2023-04-25T23:57:51;4.80;66.50
